Time;durP1;ratioP1;P1;durP2;ratioP2;P2;SDS_P1;SDS_P2;PMS_P1;PMS_P2;Temp;Humidity;BMP_temperature;BMP_pressure;BME280_temperature;BME280_humidity;BME280_pressure;Samples;Min_cycle;Max_cycle;Signal;HPM_P1;HPM_P2
2022/04/19 00:00:46;;;;;;;4.63;2.63;;;;;;;8.10;58.30;96252.88;5074313;28;20205;-59
2022/04/19 00:03:14;;;;;;;2.50;2.30;;;;;;;8.08;58.38;96246.09;5098347;28;20209;-58
2022/04/19 00:05:42;;;;;;;2.67;2.47;;;;;;;7.96;58.69;96248.00;5077702;28;20196;-57
2022/04/19 00:08:10;;;;;;;2.80;2.43;;;;;;;7.97;58.79;96250.47;5071439;28;20202;-60
2022/04/19 00:10:37;;;;;;;2.30;2.10;;;;;;;7.92;58.69;96239.53;5090220;28;20203;-58
2022/04/19 00:13:05;;;;;;;2.80;2.60;;;;;;;7.92;58.63;96241.34;5079088;28;20214;-58
2022/04/19 00:15:34;;;;;;;2.17;2.03;;;;;;;7.90;59.19;96236.19;5071802;28;20212;-59
2022/04/19 00:18:02;;;;;;;2.70;2.50;;;;;;;7.86;59.25;96234.84;5079760;28;20245;-58
2022/04/19 00:20:30;;;;;;;3.33;2.50;;;;;;;7.87;58.72;96241.75;5074735;28;20202;-58
2022/04/19 00:23:00;;;;;;;2.53;2.33;;;;;;;7.90;58.84;96236.19;5068854;28;20213;-57
2022/04/19 00:25:27;;;;;;;2.23;2.10;;;;;;;7.94;58.48;96234.97;5077916;28;20213;-58
2022/04/19 00:27:56;;;;;;;2.70;2.50;;;;;;;7.93;58.46;96229.84;5079294;28;20206;-58
2022/04/19 00:30:23;;;;;;;3.73;2.27;;;;;;;7.89;59.42;96223.19;5077377;28;20198;-58
2022/04/19 00:32:53;;;;;;;3.77;2.40;;;;;;;7.85;59.00;96217.38;5070824;28;20305;-59
2022/04/19 00:35:21;;;;;;;2.73;2.53;;;;;;;7.80;59.52;96224.81;5077079;28;20189;-58
2022/04/19 00:37:49;;;;;;;2.50;2.30;;;;;;;7.74;59.90;96214.84;5080928;28;20676;-59
2022/04/19 00:40:16;;;;;;;2.70;2.50;;;;;;;7.72;59.84;96215.97;5077018;28;20214;-58
2022/04/19 00:42:43;;;;;;;2.53;2.33;;;;;;;7.72;60.04;96218.59;5074044;28;20206;-58
2022/04/19 00:45:10;;;;;;;2.13;2.03;;;;;;;7.71;59.90;96216.94;5071766;28;20246;-58
2022/04/19 00:47:38;;;;;;;2.50;2.30;;;;;;;7.72;59.91;96215.97;5072769;28;20248;-58
2022/04/19 00:50:08;;;;;;;2.53;2.33;;;;;;;7.68;60.30;96214.56;5080095;28;20217;-59
2022/04/19 00:52:37;;;;;;;2.40;2.30;;;;;;;7.66;60.59;96214.69;5078960;28;20785;-58
2022/04/19 00:55:07;;;;;;;2.60;2.40;;;;;;;7.67;60.47;96223.41;5076004;28;20210;-58
2022/04/19 00:57:34;;;;;;;2.23;2.10;;;;;;;7.61;60.91;96214.28;5074292;28;20236;-58
2022/04/19 01:00:01;;;;;;;3.77;2.47;;;;;;;7.62;61.42;96215.94;5074810;28;20210;-58
2022/04/19 01:02:28;;;;;;;2.60;2.40;;;;;;;7.54;61.06;96207.91;5061262;28;20214;-58
2022/04/19 01:04:56;;;;;;;2.33;2.23;;;;;;;7.54;61.14;96217.59;5073606;28;20283;-58
2022/04/19 01:07:25;;;;;;;2.73;2.50;;;;;;;7.48;61.20;96203.16;5073116;28;20657;-59
2022/04/19 01:09:53;;;;;;;2.70;2.50;;;;;;;7.43;61.36;96214.09;5069219;28;20207;-58
2022/04/19 01:15:05;;;;;;;2.70;2.50;;;;;;;7.37;62.08;96213.78;5073126;28;20213;-58
2022/04/19 01:17:32;;;;;;;2.90;2.50;;;;;;;7.38;61.60;96218.06;5071035;28;20230;-59
2022/04/19 01:20:00;;;;;;;2.80;2.60;;;;;;;7.31;62.35;96211.69;5087733;28;20202;-58
2022/04/19 01:22:33;;;;;;;2.70;2.50;;;;;;;7.26;62.38;96206.00;5070879;28;20253;-58
2022/04/19 01:25:01;;;;;;;4.20;2.80;;;;;;;7.28;62.43;96207.53;5075186;28;20211;-58
2022/04/19 01:27:29;;;;;;;2.80;2.60;;;;;;;7.26;62.16;96203.38;5075656;28;20232;-59
2022/04/19 01:30:01;;;;;;;3.03;2.83;;;;;;;7.24;62.41;96200.88;5069309;28;20206;-59
2022/04/19 01:32:27;;;;;;;2.80;2.40;;;;;;;7.19;62.83;96197.81;5076677;28;20248;-57
2022/04/19 01:35:06;;;;;;;2.60;2.40;;;;;;;7.22;62.68;96197.56;5071257;28;20272;-58
2022/04/19 01:37:35;;;;;;;2.93;2.50;;;;;;;7.20;63.15;96198.63;5080419;28;20218;-57
2022/04/19 01:40:20;;;;;;;2.97;2.60;;;;;;;7.20;63.26;96193.38;5073907;28;20218;-57
2022/04/19 01:42:54;;;;;;;2.97;2.77;;;;;;;7.16;62.98;96186.72;5086343;28;20667;-58
2022/04/19 01:45:23;;;;;;;2.93;2.60;;;;;;;7.19;62.85;96194.38;5080578;28;20652;-59
2022/04/19 01:47:50;;;;;;;2.87;2.67;;;;;;;7.15;62.93;96192.97;5071145;28;20214;-58
2022/04/19 01:50:17;;;;;;;3.00;2.80;;;;;;;7.09;63.91;96194.31;5075039;28;20210;-58
2022/04/19 01:52:47;;;;;;;2.90;2.70;;;;;;;7.10;63.45;96192.53;5091135;28;20209;-57
2022/04/19 01:55:16;;;;;;;2.77;2.57;;;;;;;7.04;64.03;96190.44;5100672;28;20210;-58
2022/04/19 01:57:46;;;;;;;2.60;2.40;;;;;;;6.99;64.45;96183.75;5082090;28;20207;-57
2022/04/19 02:00:14;;;;;;;2.90;2.70;;;;;;;6.98;64.45;96179.47;5080431;28;20202;-59
2022/04/19 02:02:40;;;;;;;2.70;2.50;;;;;;;6.93;65.14;96179.03;5093457;28;20202;-58
2022/04/19 02:05:08;;;;;;;3.20;2.87;;;;;;;6.94;64.85;96188.56;5073820;28;20206;-58
2022/04/19 02:07:38;;;;;;;2.90;2.70;;;;;;;6.95;64.37;96190.25;5077373;28;20199;-58
2022/04/19 02:10:10;;;;;;;3.20;2.90;;;;;;;6.88;65.00;96181.22;5068284;28;20240;-58
2022/04/19 02:12:38;;;;;;;2.97;2.70;;;;;;;6.87;65.14;96186.63;5074531;28;20199;-58
2022/04/19 02:15:06;;;;;;;3.00;2.70;;;;;;;6.83;64.73;96186.06;5080432;28;20221;-58
2022/04/19 02:17:33;;;;;;;3.40;2.60;;;;;;;6.83;64.68;96182.59;5076373;28;20262;-58
2022/04/19 02:20:01;;;;;;;3.53;2.87;;;;;;;6.80;64.84;96181.03;5069061;28;20336;-58
2022/04/19 02:22:27;;;;;;;3.00;2.73;;;;;;;6.78;65.07;96180.34;5079772;28;20214;-57
2022/04/19 02:24:55;;;;;;;3.20;2.90;;;;;;;6.71;65.64;96175.75;5085826;28;20206;-58
2022/04/19 02:27:24;;;;;;;2.80;2.63;;;;;;;6.70;65.37;96179.31;5094524;28;20187;-58
2022/04/19 02:29:54;;;;;;;3.33;2.90;;;;;;;6.67;65.58;96175.19;5078481;28;20253;-58
2022/04/19 02:32:23;;;;;;;3.57;2.90;;;;;;;6.64;66.02;96178.06;5070886;28;20266;-58
2022/04/19 02:34:50;;;;;;;2.67;2.53;;;;;;;6.60;65.47;96171.41;5077619;28;20205;-58
2022/04/19 02:37:19;;;;;;;3.13;2.80;;;;;;;6.57;65.87;96174.28;5077171;28;20203;-58
2022/04/19 02:39:52;;;;;;;3.50;2.87;;;;;;;6.53;65.92;96167.63;5061936;28;20651;-58
2022/04/19 02:42:20;;;;;;;3.30;3.00;;;;;;;6.53;65.68;96162.38;5075194;28;20209;-58
2022/04/19 02:44:48;;;;;;;3.30;2.97;;;;;;;6.46;66.28;96169.94;5083761;28;20214;-58
2022/04/19 02:47:16;;;;;;;3.37;3.07;;;;;;;6.50;66.26;96162.66;5070385;28;20206;-58
2022/04/19 02:49:44;;;;;;;2.87;2.63;;;;;;;6.46;66.65;96161.22;5074515;28;20216;-57
2022/04/19 02:52:14;;;;;;;3.17;2.87;;;;;;;6.42;66.72;96160.66;5072966;28;20292;-58
2022/04/19 02:54:43;;;;;;;3.13;2.83;;;;;;;6.39;66.90;96160.09;5067088;28;20221;-58
2022/04/19 02:57:09;;;;;;;2.97;2.70;;;;;;;6.39;66.91;96165.34;5069905;28;20583;-58
2022/04/19 02:59:42;;;;;;;2.87;2.67;;;;;;;6.33;67.33;96163.25;5070056;28;20233;-57
2022/04/19 03:02:11;;;;;;;3.40;3.10;;;;;;;6.33;67.20;96165.88;5075436;28;20207;-58
2022/04/19 03:04:39;;;;;;;3.10;2.90;;;;;;;6.22;68.13;96166.75;5071223;28;20217;-58
2022/04/19 03:07:07;;;;;;;3.23;3.00;;;;;;;6.29;67.35;96162.66;5072517;28;20217;-58
2022/04/19 03:09:35;;;;;;;3.97;3.07;;;;;;;6.24;66.98;96167.44;5076041;28;20264;-58
2022/04/19 03:12:01;;;;;;;3.17;2.87;;;;;;;6.25;67.33;96163.03;5068382;28;20210;-58
2022/04/19 03:14:29;;;;;;;4.07;3.00;;;;;;;6.22;67.81;96169.38;5084331;28;20277;-58
2022/04/19 03:16:56;;;;;;;3.37;3.07;;;;;;;6.23;67.53;96164.97;5076740;28;20211;-58
2022/04/19 03:19:26;;;;;;;5.03;3.10;;;;;;;6.14;68.58;96166.56;5079181;28;20265;-58
2022/04/19 03:21:54;;;;;;;3.43;3.13;;;;;;;6.17;67.91;96170.72;5062383;28;20302;-59
2022/04/19 03:29:52;;;;;;;3.27;3.00;;;;;;;6.15;67.97;96162.16;5073026;28;20315;-58
2022/04/19 03:32:19;;;;;;;3.23;3.03;;;;;;;6.09;68.42;96167.91;5076095;28;20324;-57
2022/04/19 03:34:47;;;;;;;3.43;3.10;;;;;;;6.00;68.67;96170.34;5080902;28;20202;-58
2022/04/19 03:37:13;;;;;;;3.13;2.90;;;;;;;5.99;68.52;96160.78;5071883;28;20226;-58
2022/04/19 03:39:40;;;;;;;3.20;3.00;;;;;;;5.97;69.11;96165.34;5067813;28;20226;-58
2022/04/19 03:42:08;;;;;;;3.33;3.03;;;;;;;6.02;68.20;96156.25;5082209;28;20273;-58
2022/04/19 03:44:36;;;;;;;3.60;3.30;;;;;;;6.03;68.28;96163.16;5070002;28;20217;-58
2022/04/19 03:47:09;;;;;;;3.43;3.13;;;;;;;5.99;68.73;96168.66;5070545;28;20210;-58
2022/04/19 03:49:37;;;;;;;3.17;2.97;;;;;;;5.92;69.45;96167.50;5080610;28;20194;-58
2022/04/19 03:52:06;;;;;;;4.20;3.80;;;;;;;5.88;69.25;96166.09;5084067;28;20302;-58
2022/04/19 03:54:34;;;;;;;3.80;3.40;;;;;;;5.80;70.16;96163.25;5075500;28;20210;-57
2022/04/19 03:57:01;;;;;;;3.40;3.10;;;;;;;5.90;69.22;96156.31;5099419;28;20198;-58
2022/04/19 03:59:28;;;;;;;3.00;2.80;;;;;;;5.91;69.18;96163.22;5099513;28;20294;-58
2022/04/19 04:01:54;;;;;;;3.87;3.30;;;;;;;5.86;69.96;96165.38;5099243;28;20201;-58
2022/04/19 04:04:22;;;;;;;3.10;2.90;;;;;;;5.77;70.50;96160.88;5107866;28;20198;-60
2022/04/19 04:06:49;;;;;;;3.23;3.03;;;;;;;5.74;70.09;96168.97;5091596;28;20198;-60
2022/04/19 04:09:17;;;;;;;3.23;2.93;;;;;;;5.76;70.24;96163.63;5107361;28;20213;-58
2022/04/19 04:11:44;;;;;;;4.50;3.43;;;;;;;5.70;70.20;96164.97;5117673;28;20202;-58
2022/04/19 04:14:10;;;;;;;4.27;3.40;;;;;;;5.66;70.08;96166.16;5117800;28;20185;-58
2022/04/19 04:16:37;;;;;;;3.43;3.07;;;;;;;5.63;70.90;96168.19;5115486;28;20205;-58
2022/04/19 04:19:03;;;;;;;3.53;3.23;;;;;;;5.69;70.87;96170.31;5095839;28;20231;-59
2022/04/19 04:21:30;;;;;;;3.73;3.20;;;;;;;5.71;70.91;96166.59;5073410;28;20199;-57
2022/04/19 04:23:57;;;;;;;3.73;3.43;;;;;;;5.69;71.12;96173.78;5065784;28;20207;-58
2022/04/19 04:26:25;;;;;;;6.60;4.17;;;;;;;5.70;71.07;96172.00;5079214;28;20214;-58
2022/04/19 04:28:52;;;;;;;3.83;3.40;;;;;;;5.57;72.13;96166.88;5074505;28;20522;-58
2022/04/19 04:31:20;;;;;;;5.43;3.20;;;;;;;5.60;72.35;96173.69;5060224;28;20213;-57
2022/04/19 04:33:46;;;;;;;3.40;3.10;;;;;;;5.64;71.46;96175.94;5080218;28;20229;-58
2022/04/19 04:36:13;;;;;;;3.50;3.20;;;;;;;5.63;71.11;96176.06;5067913;28;20216;-58
2022/04/19 04:38:40;;;;;;;3.70;3.23;;;;;;;5.58;72.00;96175.59;5066015;28;20673;-58
2022/04/19 04:41:07;;;;;;;3.53;3.07;;;;;;;5.57;71.67;96179.16;5074315;28;20214;-57
2022/04/19 04:43:38;;;;;;;4.50;3.50;;;;;;;5.62;71.46;96175.22;5060088;28;20202;-58
2022/04/19 04:51:33;;;;;;;4.27;3.87;;;;;;;5.50;72.33;96174.44;5098618;28;20170;-57
2022/04/19 04:54:00;;;;;;;3.77;3.47;;;;;;;5.58;71.75;96180.84;5087474;28;20290;-59
2022/04/19 04:56:26;;;;;;;3.50;3.20;;;;;;;5.76;70.56;96174.94;5073711;28;20471;-58
2022/04/19 04:58:54;;;;;;;3.50;3.20;;;;;;;5.82;70.31;96176.22;5072415;28;20253;-58
2022/04/19 05:01:24;;;;;;;4.03;3.60;;;;;;;5.92;70.49;96172.75;5074986;28;20218;-58
2022/04/19 05:03:52;;;;;;;3.53;3.10;;;;;;;6.02;70.05;96164.13;5064446;28;20203;-58
2022/04/19 05:06:20;;;;;;;3.30;3.10;;;;;;;5.95;70.57;96172.50;5065592;28;20627;-59
2022/04/19 05:08:47;;;;;;;2.77;2.57;;;;;;;5.97;71.46;96175.84;5083141;28;20206;-58
2022/04/19 05:11:15;;;;;;;3.73;3.33;;;;;;;5.96;72.07;96168.91;5078934;28;20225;-58
2022/04/19 05:13:43;;;;;;;3.47;3.27;;;;;;;5.90;71.85;96185.16;5080914;28;20292;-58
2022/04/19 05:16:11;;;;;;;3.00;2.80;;;;;;;6.02;72.11;96178.09;5071015;28;20653;-58
2022/04/19 05:18:37;;;;;;;3.20;3.00;;;;;;;5.99;72.28;96176.53;5066024;28;20226;-58
2022/04/19 05:21:07;;;;;;;4.80;3.40;;;;;;;5.99;73.35;96178.31;5073314;28;20217;-58
2022/04/19 05:23:33;;;;;;;3.73;3.30;;;;;;;6.14;72.91;96176.22;5058294;28;20217;-58
2022/04/19 05:26:00;;;;;;;3.73;3.43;;;;;;;6.21;72.94;96172.97;5079057;28;20209;-59
2022/04/19 05:28:26;;;;;;;3.90;3.53;;;;;;;6.33;72.77;96168.50;5088551;28;20202;-58
2022/04/19 05:30:56;;;;;;;3.70;3.40;;;;;;;6.54;72.55;96169.31;5085959;28;20198;-58
2022/04/19 05:33:24;;;;;;;4.07;3.63;;;;;;;6.70;72.85;96172.28;5074373;28;20249;-58
2022/04/19 05:35:51;;;;;;;3.63;3.40;;;;;;;7.17;71.63;96172.63;5074421;28;20205;-58
2022/04/19 05:38:18;;;;;;;4.40;3.87;;;;;;;7.67;69.28;96169.00;5075211;28;20213;-58
2022/04/19 05:40:46;;;;;;;3.90;3.50;;;;;;;7.95;67.32;96176.06;5064911;28;20211;-58
2022/04/19 05:43:13;;;;;;;3.57;3.27;;;;;;;8.39;67.13;96173.88;5079421;28;20210;-58
2022/04/19 05:45:40;;;;;;;4.03;3.43;;;;;;;8.79;64.74;96171.81;5076113;28;20207;-58
2022/04/19 05:48:10;;;;;;;4.43;4.03;;;;;;;9.00;63.31;96176.88;5067368;28;20211;-58
2022/04/19 05:50:42;;;;;;;6.27;3.40;;;;;;;9.69;60.54;96174.59;5094006;28;20241;-58
2022/04/19 05:53:08;;;;;;;3.20;3.00;;;;;;;10.68;56.19;96168.22;5083941;28;20239;-58
2022/04/19 05:55:35;;;;;;;4.53;4.00;;;;;;;11.76;52.25;96171.06;5096141;28;20221;-58
2022/04/19 05:58:02;;;;;;;4.50;4.13;;;;;;;12.24;50.95;96177.44;5089621;28;20640;-59
2022/04/19 06:00:31;;;;;;;4.90;4.00;;;;;;;12.43;51.13;96174.47;5075841;28;20233;-59
2022/04/19 06:05:44;;;;;;;4.47;3.70;;;;;;;13.74;46.82;96182.00;5068824;28;20205;-58
2022/04/19 06:08:11;;;;;;;3.87;3.47;;;;;;;13.78;46.98;96181.44;5066831;28;20281;-61
2022/04/19 06:10:42;;;;;;;4.77;3.70;;;;;;;13.70;47.04;96184.16;5066083;28;20219;-58
2022/04/19 06:13:11;;;;;;;5.47;3.90;;;;;;;13.95;45.78;96182.22;5078336;28;20198;-59
2022/04/19 06:15:38;;;;;;;4.90;3.40;;;;;;;14.08;45.74;96181.63;5079027;28;20203;-57
2022/04/19 06:18:06;;;;;;;5.03;3.73;;;;;;;14.50;44.74;96176.69;5077526;28;20206;-58
2022/04/19 06:20:34;;;;;;;5.53;3.83;;;;;;;14.82;43.18;96176.41;5069049;28;20242;-59
2022/04/19 06:23:02;;;;;;;5.30;3.93;;;;;;;15.34;42.35;96178.22;5074702;28;20211;-59
2022/04/19 06:25:29;;;;;;;4.03;3.67;;;;;;;15.28;42.10;96170.97;5064385;28;20210;-58
2022/04/19 06:27:57;;;;;;;3.60;3.20;;;;;;;14.82;41.82;96168.44;5067866;28;20215;-58
2022/04/19 06:30:24;;;;;;;3.60;3.20;;;;;;;14.69;42.32;96175.38;5067017;28;20591;-59
2022/04/19 06:32:51;;;;;;;4.23;3.80;;;;;;;14.68;41.02;96171.88;5075639;28;20622;-58
2022/04/19 06:35:20;;;;;;;5.23;3.50;;;;;;;14.91;40.98;96172.66;5075786;28;20748;-57
2022/04/19 06:37:47;;;;;;;3.53;3.27;;;;;;;15.01;40.58;96168.94;5073481;28;20634;-58
2022/04/19 06:40:15;;;;;;;4.87;3.77;;;;;;;15.06;41.43;96174.50;5063988;28;20262;-58
2022/04/19 06:42:42;;;;;;;5.57;4.33;;;;;;;15.35;40.45;96174.53;5075663;28;20202;-58
2022/04/19 06:45:10;;;;;;;4.30;3.90;;;;;;;15.29;40.34;96172.63;5065208;28;20543;-59
2022/04/19 06:47:36;;;;;;;4.87;3.87;;;;;;;15.45;40.80;96172.41;5073682;28;20622;-58
2022/04/19 06:50:04;;;;;;;4.33;3.97;;;;;;;15.50;40.26;96179.91;5072904;28;20550;-57
2022/04/19 06:52:31;;;;;;;4.23;3.83;;;;;;;15.80;40.49;96177.00;5070964;28;20207;-58
2022/04/19 06:54:58;;;;;;;5.07;4.50;;;;;;;15.47;40.28;96183.75;5070789;28;20567;-58
2022/04/19 06:57:26;;;;;;;6.10;4.00;;;;;;;15.87;40.49;96177.91;5076362;28;20220;-58
2022/04/19 06:59:54;;;;;;;4.20;3.90;;;;;;;15.96;40.48;96175.16;5076740;28;20332;-58
2022/04/19 07:02:22;;;;;;;4.70;4.30;;;;;;;16.05;39.53;96179.38;5080967;28;20224;-58
2022/04/19 07:04:49;;;;;;;4.80;4.40;;;;;;;15.97;38.26;96174.13;5076146;28;20202;-57
2022/04/19 07:07:15;;;;;;;4.80;4.40;;;;;;;16.24;39.07;96173.41;5082217;28;20282;-57
2022/04/19 07:09:42;;;;;;;6.97;4.00;;;;;;;16.07;39.51;96177.34;5086767;28;20203;-57
2022/04/19 07:12:10;;;;;;;4.93;4.07;;;;;;;16.00;38.07;96168.44;5093066;28;20205;-58
2022/04/19 07:14:40;;;;;;;4.50;4.10;;;;;;;16.31;38.78;96172.47;5095014;28;20199;-57
2022/04/19 07:17:07;;;;;;;6.35;4.47;;;;;;;16.26;39.23;96164.19;5082587;28;20301;-58
2022/04/19 07:27:44;;;;;;;4.60;4.22;;;;;;;16.65;36.49;96166.44;5075832;28;20217;-57
2022/04/19 07:30:13;;;;;;;4.95;4.30;;;;;;;16.95;37.54;96166.28;5072183;28;20202;-58
2022/04/19 07:32:40;;;;;;;10.32;4.10;;;;;;;17.02;36.91;96172.50;5074295;28;20264;-58
2022/04/19 07:35:07;;;;;;;5.80;4.30;;;;;;;17.19;37.08;96173.84;5086546;28;20213;-57
2022/04/19 07:37:35;;;;;;;5.40;4.30;;;;;;;16.99;36.90;96162.19;5076036;28;20210;-58
2022/04/19 07:40:06;;;;;;;4.30;3.95;;;;;;;17.47;35.82;96168.47;5075830;28;20229;-57
2022/04/19 07:42:33;;;;;;;5.18;4.10;;;;;;;17.03;36.90;96168.81;5067318;28;20642;-58
2022/04/19 07:45:02;;;;;;;4.50;4.10;;;;;;;17.01;36.97;96165.50;5067524;28;20207;-58
2022/04/19 07:47:32;;;;;;;4.05;3.65;;;;;;;17.59;36.59;96165.09;5078354;28;20252;-57
2022/04/19 07:49:58;;;;;;;4.47;4.18;;;;;;;17.28;35.29;96160.16;5074614;28;20207;-58
2022/04/19 07:52:26;;;;;;;4.35;3.95;;;;;;;17.68;36.96;96163.06;5071976;28;20206;-57
2022/04/19 07:54:54;;;;;;;5.05;4.55;;;;;;;17.62;36.75;96163.84;5071539;28;20261;-58
2022/04/19 07:57:24;;;;;;;5.40;4.32;;;;;;;17.83;37.21;96166.41;5062260;28;20214;-58
2022/04/19 07:59:54;;;;;;;6.70;4.43;;;;;;;17.80;36.31;96156.97;5071407;28;20226;-58
2022/04/19 08:02:21;;;;;;;6.68;4.70;;;;;;;18.15;37.29;96159.53;5079865;28;20290;-58
2022/04/19 08:04:50;;;;;;;4.72;4.25;;;;;;;18.21;35.95;96158.75;5083425;28;20226;-57
2022/04/19 08:07:18;;;;;;;5.30;4.10;;;;;;;18.49;35.88;96154.06;5066747;28;20234;-58
2022/04/19 08:09:45;;;;;;;4.93;4.43;;;;;;;18.35;35.67;96155.88;5073729;28;20256;-58
2022/04/19 08:12:12;;;;;;;7.82;4.30;;;;;;;18.44;35.38;96144.97;5076577;28;20558;-58
2022/04/19 08:14:41;;;;;;;6.07;4.38;;;;;;;18.46;34.53;96146.41;5063391;28;20238;-58
2022/04/19 08:17:09;;;;;;;6.40;4.43;;;;;;;18.50;35.41;96146.84;5078476;28;20210;-59
2022/04/19 08:19:36;;;;;;;4.90;4.40;;;;;;;18.56;35.10;96140.72;5062882;28;20219;-58
2022/04/19 08:22:04;;;;;;;5.60;4.40;;;;;;;18.58;35.76;96134.13;5072035;28;20272;-57
2022/04/19 08:24:31;;;;;;;4.47;4.07;;;;;;;18.18;34.21;96132.38;5061626;28;20623;-58
2022/04/19 08:26:58;;;;;;;4.28;3.78;;;;;;;18.16;34.19;96131.75;5074748;28;20210;-58
2022/04/19 08:29:25;;;;;;;5.97;4.22;;;;;;;18.65;36.50;96137.63;5071364;28;20218;-58
2022/04/19 08:31:55;;;;;;;6.30;4.43;;;;;;;18.90;35.93;96137.84;5061773;28;20198;-58
2022/04/19 08:34:22;;;;;;;11.20;4.85;;;;;;;18.62;35.88;96134.53;5086081;28;20223;-58
2022/04/19 08:36:49;;;;;;;4.30;4.00;;;;;;;19.14;36.24;96136.34;5072748;28;20499;-58
2022/04/19 08:39:17;;;;;;;5.50;4.10;;;;;;;18.89;33.99;96134.31;5074343;28;20202;-59
2022/04/19 08:41:47;;;;;;;10.15;4.13;;;;;;;19.37;33.66;96134.06;5074695;28;20209;-58
2022/04/19 08:44:15;;;;;;;4.18;3.88;;;;;;;19.57;35.45;96128.66;5066566;28;20207;-58
2022/04/19 08:46:42;;;;;;;6.97;4.75;;;;;;;19.75;35.60;96135.00;5070334;28;20538;-58
2022/04/19 08:49:10;;;;;;;5.32;4.38;;;;;;;19.88;33.27;96132.25;5068539;28;20201;-58
2022/04/19 08:51:37;;;;;;;8.00;4.55;;;;;;;19.97;31.66;96135.53;5081653;28;20209;-59
2022/04/19 08:59:42;;;;;;;4.68;4.18;;;;;;;20.73;32.44;96120.19;5032804;28;20237;-59
2022/04/19 09:02:22;;;;;;;6.35;4.18;;;;;;;20.57;32.13;96120.75;5071207;28;20198;-58
2022/04/19 09:04:51;;;;;;;5.05;4.07;;;;;;;20.60;32.47;96120.31;5066409;28;20201;-59
2022/04/19 09:07:18;;;;;;;4.63;4.22;;;;;;;20.71;31.73;96119.59;5080582;28;20653;-58
2022/04/19 09:09:58;;;;;;;6.15;4.28;;;;;;;20.88;32.79;96121.72;5075723;28;20202;-58
2022/04/19 09:12:26;;;;;;;5.82;4.28;;;;;;;21.23;33.35;96114.81;5065381;28;20227;-56
2022/04/19 09:14:59;;;;;;;6.15;3.95;;;;;;;21.71;31.40;96109.53;5078792;28;20214;-59
2022/04/19 09:17:33;;;;;;;4.70;4.28;;;;;;;20.96;32.47;96108.03;5068203;28;20233;-59
2022/04/19 09:20:12;;;;;;;5.13;4.20;;;;;;;20.94;30.98;96105.53;5067559;28;20226;-58
2022/04/19 09:22:39;;;;;;;4.38;3.97;;;;;;;20.95;31.77;96101.00;5070372;28;20622;-59
2022/04/19 09:25:17;;;;;;;5.20;4.70;;;;;;;21.08;32.30;96101.69;5059403;28;20195;-58
2022/04/19 09:27:46;;;;;;;4.93;4.50;;;;;;;21.00;34.14;96098.47;5073369;28;20217;-59
2022/04/19 09:30:18;;;;;;;6.47;3.67;;;;;;;21.44;33.73;96094.72;5083312;28;20195;-59
2022/04/19 09:33:02;;;;;;;4.68;4.00;;;;;;;21.31;29.93;96096.53;5109875;28;20229;-63
2022/04/19 09:35:36;;;;;;;5.05;4.65;;;;;;;21.33;31.66;96094.44;5099273;28;20197;-58
2022/04/19 09:38:04;;;;;;;4.80;4.15;;;;;;;20.90;30.75;96090.09;5086965;28;20302;-58
2022/04/19 09:40:32;;;;;;;5.57;3.92;;;;;;;21.40;29.92;96090.88;5090389;28;20218;-58
2022/04/19 09:43:21;;;;;;;5.88;3.95;;;;;;;21.37;31.29;96084.03;5113049;28;20178;-58
2022/04/19 09:45:56;;;;;;;5.28;3.78;;;;;;;21.69;31.24;96074.78;5106417;28;20269;-58
2022/04/19 09:48:24;;;;;;;5.28;4.10;;;;;;;21.97;31.72;96068.03;5091474;28;20182;-58
2022/04/19 09:50:57;;;;;;;5.30;3.97;;;;;;;21.81;31.53;96062.22;5077031;28;20229;-58
2022/04/19 09:53:25;;;;;;;4.03;3.72;;;;;;;22.06;30.78;96067.50;5073337;28;20260;-58
2022/04/19 09:55:53;;;;;;;4.90;4.47;;;;;;;21.99;28.49;96060.56;5078143;28;20206;-58
2022/04/19 09:58:24;;;;;;;8.35;4.63;;;;;;;22.18;28.58;96056.75;5082561;28;20207;-59
2022/04/19 10:00:51;;;;;;;4.65;4.25;;;;;;;22.01;29.62;96053.06;5076986;28;20563;-59
2022/04/19 10:09:07;;;;;;;6.32;4.03;;;;;;;22.11;29.67;96047.94;4999258;28;20207;-58
2022/04/19 10:11:34;;;;;;;4.30;3.88;;;;;;;22.38;29.45;96051.91;5031039;28;20257;-58
2022/04/19 10:14:04;;;;;;;3.72;3.53;;;;;;;22.19;29.24;96047.63;5068650;28;20210;-58
2022/04/19 10:16:31;;;;;;;4.13;3.72;;;;;;;;;;5078753;28;20218;-57
2022/04/19 10:18:58;;;;;;;4.55;4.18;;;;;;;23.20;26.70;96036.63;5077633;28;20206;-58
2022/04/19 10:21:27;;;;;;;4.00;3.70;;;;;;;22.90;28.05;96035.91;5073958;28;20305;-58
2022/04/19 10:24:09;;;;;;;4.30;4.00;;;;;;;22.70;27.33;96030.88;5076917;28;20194;-57
2022/04/19 10:26:41;;;;;;;4.43;3.85;;;;;;;22.44;26.56;96026.72;5069896;28;20240;-58
2022/04/19 10:29:18;;;;;;;4.60;3.95;;;;;;;22.23;26.00;96020.00;5083821;28;20259;-58
2022/04/19 10:31:58;;;;;;;3.88;3.58;;;;;;;22.35;26.56;96016.50;5080230;28;20226;-59
2022/04/19 10:34:26;;;;;;;3.63;3.42;;;;;;;22.40;27.61;96022.84;5086540;28;20688;-58
2022/04/19 10:36:54;;;;;;;4.30;3.90;;;;;;;22.36;26.06;96013.56;5099042;28;20205;-58
2022/04/19 10:39:23;;;;;;;3.78;3.47;;;;;;;22.25;24.82;96017.06;5088807;28;20206;-60
2022/04/19 10:41:53;;;;;;;4.38;3.72;;;;;;;22.26;25.57;96022.22;5078628;28;20254;-57
2022/04/19 10:44:32;;;;;;;3.47;3.25;;;;;;;22.60;26.49;96014.44;5075102;28;20294;-59
2022/04/19 10:47:17;;;;;;;4.00;3.70;;;;;;;22.39;25.70;96010.41;5074725;28;20198;-59
2022/04/19 10:49:57;;;;;;;4.20;3.83;;;;;;;22.65;26.43;96011.84;5070320;28;20198;-59
2022/04/19 10:52:52;;;;;;;4.13;3.83;;;;;;;22.08;25.11;95999.94;5075185;28;20217;-60
2022/04/19 10:55:24;;;;;;;4.40;4.03;;;;;;;22.18;26.17;96010.94;5074580;28;20210;-59
2022/04/19 11:00:51;;;;;;;4.05;3.35;;;;;;;22.21;26.66;96005.13;5068771;28;20271;-58
2022/04/19 11:03:20;;;;;;;3.38;3.10;;;;;;;22.16;25.57;95996.91;5072190;28;20623;-59
2022/04/19 11:05:48;;;;;;;4.10;3.80;;;;;;;21.63;24.56;95989.56;5086300;28;20195;-60
2022/04/19 11:08:31;;;;;;;3.55;3.15;;;;;;;21.77;24.58;95988.34;5095447;28;20193;-59
2022/04/19 11:11:31;;;;;;;3.50;3.20;;;;;;;22.10;25.49;95987.06;5095255;28;20170;-59
2022/04/19 11:14:21;;;;;;;3.83;3.53;;;;;;;22.56;28.65;95981.75;5101440;28;20198;-56
2022/04/19 11:16:51;;;;;;;3.53;3.33;;;;;;;22.34;24.65;95983.38;5080908;28;20201;-56
2022/04/19 11:19:20;;;;;;;3.85;3.13;;;;;;;22.77;26.75;95973.09;5069337;28;20210;-57
2022/04/19 11:21:54;;;;;;;3.63;3.20;;;;;;;22.72;25.64;95981.06;5091606;28;20226;-58
2022/04/19 11:24:58;;;;;;;3.20;3.00;;;;;;;22.95;24.68;95968.63;5076769;28;20203;-56
2022/04/19 11:27:26;;;;;;;3.10;2.90;;;;;;;23.32;26.36;95969.94;5084110;28;20212;-55
2022/04/19 11:29:55;;;;;;;3.97;3.05;;;;;;;23.30;26.39;95967.50;5065172;28;20194;-56
2022/04/19 11:32:24;;;;;;;3.47;2.70;;;;;;;23.04;26.14;95959.94;5065535;28;20203;-56
2022/04/19 11:35:02;;;;;;;2.67;2.38;;;;;;;23.04;23.80;95961.81;5068040;28;20199;-57
2022/04/19 11:37:30;;;;;;;3.67;3.38;;;;;;;23.06;25.22;95954.31;5072444;28;20199;-55
2022/04/19 11:48:29;;;;;;;4.15;2.80;;;;;;;23.56;25.28;95944.56;5075819;28;20233;-56
2022/04/19 11:51:06;;;;;;;3.05;2.85;;;;;;;23.27;25.15;95934.78;5095287;28;20522;-57
2022/04/19 11:53:33;;;;;;;3.45;3.15;;;;;;;22.91;27.67;95941.31;5093677;28;20182;-57
2022/04/19 11:56:00;;;;;;;2.55;2.40;;;;;;;23.12;26.20;95938.00;5084957;28;20191;-55
2022/04/19 11:58:26;;;;;;;2.95;2.72;;;;;;;23.13;26.36;95928.03;5078060;28;20264;-56
2022/04/19 12:00:58;;;;;;;3.47;2.80;;;;;;;23.23;26.21;95930.94;5091648;28;20229;-57
2022/04/19 12:03:26;;;;;;;2.95;2.75;;;;;;;23.52;25.21;95929.94;5069467;28;20206;-57
2022/04/19 12:05:55;;;;;;;3.63;3.05;;;;;;;23.28;24.79;95928.31;5089925;28;20240;-58
2022/04/19 12:08:33;;;;;;;3.28;2.83;;;;;;;23.01;26.09;95924.53;5077923;28;20211;-56
2022/04/19 12:11:01;;;;;;;4.63;2.88;;;;;;;23.28;26.17;95914.81;5067502;28;20299;-56
2022/04/19 12:13:28;;;;;;;3.78;2.90;;;;;;;23.54;25.76;95918.88;5078031;28;20210;-57
2022/04/19 12:15:54;;;;;;;3.38;3.08;;;;;;;23.29;25.72;95916.47;5080751;28;20199;-56
2022/04/19 12:18:34;;;;;;;3.28;2.67;;;;;;;23.38;28.81;95903.44;5081711;28;20207;-57
2022/04/19 12:21:04;;;;;;;1.98;1.88;;;;;;;23.06;24.61;95900.38;5067831;28;20277;-57
2022/04/19 12:23:30;;;;;;;2.95;2.50;;;;;;;23.27;24.38;95905.13;5067708;28;20199;-56
2022/04/19 12:26:01;;;;;;;2.03;1.92;;;;;;;23.49;24.83;95906.09;5074821;28;20206;-55
2022/04/19 12:28:38;;;;;;;2.35;2.15;;;;;;;23.27;25.17;95902.41;5066158;28;20205;-55
2022/04/19 12:31:05;;;;;;;1.98;1.88;;;;;;;23.85;26.23;95906.72;5069765;28;20225;-56
2022/04/19 12:33:31;;;;;;;2.88;2.67;;;;;;;23.68;24.33;95904.84;5076871;28;20231;-54
2022/04/19 12:35:58;;;;;;;2.08;1.98;;;;;;;23.49;23.61;95903.38;5067652;28;20222;-56